Time;durP1;ratioP1;P1;durP2;ratioP2;P2;SDS_P1;SDS_P2;PMS_P1;PMS_P2;Temp;Humidity;BMP_temperature;BMP_pressure;BME280_temperature;BME280_humidity;BME280_pressure;Samples;Min_cycle;Max_cycle;Signal;HPM_P1;HPM_P2
2022/06/13 00:00:16;;;;;;;6.80;2.00;;;;;;;21.06;57.92;99712.81;338759;29;1805;-78
2022/06/13 00:00:31;;;;;;;5.75;2.00;;;;;;;21.06;57.80;99705.72;341304;29;1064;-78
2022/06/13 00:00:44;;;;;;;7.10;2.03;;;;;;;21.07;57.99;99712.72;340248;28;1651;-77
2022/06/13 00:00:56;;;;;;;8.43;2.00;;;;;;;21.05;58.13;99696.13;340244;29;1265;-77
2022/06/13 00:01:15;;;;;;;7.03;1.90;;;;;;;21.06;58.30;99707.53;340662;29;1982;-78
2022/06/13 00:01:30;;;;;;;5.40;1.85;;;;;;;21.05;58.29;99704.06;342299;28;1067;-78
2022/06/13 00:01:42;;;;;;;4.85;2.00;;;;;;;21.05;58.00;99706.69;343393;28;1073;-78
2022/06/13 00:01:55;;;;;;;3.30;1.90;;;;;;;21.04;58.21;99702.34;342103;28;2133;-78
2022/06/13 00:02:07;;;;;;;3.50;1.70;;;;;;;21.06;58.18;99703.09;340423;29;1911;-78
2022/06/13 00:02:19;;;;;;;4.90;1.95;;;;;;;21.02;58.06;99696.34;340518;29;1605;-78
2022/06/13 00:02:34;;;;;;;6.20;2.15;;;;;;;20.99;58.40;99701.00;340834;28;1249;-77
2022/06/13 00:02:46;;;;;;;5.88;2.00;;;;;;;21.00;58.04;99703.56;341214;28;1423;-78
2022/06/13 00:02:59;;;;;;;6.22;2.00;;;;;;;21.01;57.95;99699.13;342239;28;1075;-78
2022/06/13 00:03:17;;;;;;;5.47;2.13;;;;;;;20.99;58.21;99701.88;340648;28;1663;-78
2022/06/13 00:03:29;;;;;;;6.13;2.15;;;;;;;21.01;58.10;99705.25;341883;28;1278;-78
2022/06/13 00:03:41;;;;;;;6.10;2.10;;;;;;;21.01;58.38;99699.97;342456;28;1140;-77
2022/06/13 00:03:54;;;;;;;5.25;1.92;;;;;;;21.00;58.14;99702.72;341598;28;1116;-78
2022/06/13 00:04:07;;;;;;;8.70;2.13;;;;;;;20.98;58.27;99699.34;343102;28;1070;-78
2022/06/13 00:04:19;;;;;;;8.80;2.15;;;;;;;20.95;58.23;99705.72;344037;28;1237;-78
2022/06/13 00:04:31;;;;;;;6.85;2.05;;;;;;;20.94;58.39;99698.72;343848;28;1180;-78
2022/06/13 00:04:43;;;;;;;5.88;2.05;;;;;;;20.91;57.98;99704.25;343454;28;758;-78
2022/06/13 00:04:55;;;;;;;5.95;2.10;;;;;;;20.91;58.31;99709.53;342134;28;1974;-78
2022/06/13 00:05:09;;;;;;;4.75;2.00;;;;;;;20.92;58.13;99705.94;341513;28;1880;-77
2022/06/13 00:05:21;;;;;;;4.35;2.00;;;;;;;20.92;58.22;99711.22;343806;28;1677;-78
2022/06/13 00:05:35;;;;;;;5.05;2.03;;;;;;;20.93;58.29;99707.63;344257;28;1210;-78
2022/06/13 00:05:47;;;;;;;6.55;2.20;;;;;;;20.95;58.29;99701.25;343825;28;1794;-78
2022/06/13 00:05:59;;;;;;;6.80;2.03;;;;;;;20.96;58.23;99702.09;342194;28;1240;-78
2022/06/13 00:06:11;;;;;;;6.28;1.90;;;;;;;20.95;58.45;99706.53;342731;28;1654;-78
2022/06/13 00:06:23;;;;;;;5.80;1.83;;;;;;;20.92;58.26;99703.28;343384;28;1054;-78
2022/06/13 00:06:35;;;;;;;4.55;1.88;;;;;;;20.91;58.08;99699.81;342927;28;1350;-78
2022/06/13 00:06:48;;;;;;;4.00;1.75;;;;;;;20.95;57.55;99703.91;343581;28;883;-78
2022/06/13 00:07:01;;;;;;;4.30;1.70;;;;;;;20.96;57.50;99702.09;344087;28;923;-77
2022/06/13 00:07:13;;;;;;;4.30;1.70;;;;;;;20.98;57.24;99700.19;343808;28;1771;-78
2022/06/13 00:07:25;;;;;;;5.28;1.95;;;;;;;20.97;57.53;99697.66;344636;28;1749;-77
2022/06/13 00:07:37;;;;;;;5.15;2.00;;;;;;;20.97;56.87;99698.50;345428;28;1668;-78
2022/06/13 00:07:49;;;;;;;5.60;1.95;;;;;;;20.97;57.16;99701.16;345821;28;1597;-78
2022/06/13 00:08:01;;;;;;;5.55;1.80;;;;;;;20.97;57.18;99709.09;342674;28;1616;-78
2022/06/13 00:08:14;;;;;;;6.10;1.85;;;;;;;21.00;57.21;99700.06;342265;28;2076;-78
2022/06/13 00:08:26;;;;;;;6.07;1.90;;;;;;;21.02;56.76;99699.00;343283;28;1338;-77
2022/06/13 00:08:39;;;;;;;5.50;1.80;;;;;;;21.04;56.85;99699.72;342474;28;1561;-78
2022/06/13 00:08:51;;;;;;;4.75;1.73;;;;;;;21.07;57.06;99696.03;343020;28;833;-78
2022/06/13 00:09:05;;;;;;;4.60;1.75;;;;;;;21.08;57.01;99695.88;342699;28;1023;-78
2022/06/13 00:09:17;;;;;;;4.63;1.80;;;;;;;21.10;57.06;99699.25;342542;28;1421;-78
2022/06/13 00:09:29;;;;;;;4.53;1.70;;;;;;;21.11;56.98;99700.13;343797;28;1261;-78
2022/06/13 00:09:41;;;;;;;4.35;1.73;;;;;;;21.04;57.17;99694.44;344665;28;752;-78
2022/06/13 00:09:53;;;;;;;5.30;1.88;;;;;;;20.93;57.50;99697.91;343678;28;1572;-78
2022/06/13 00:10:07;;;;;;;5.05;1.80;;;;;;;20.91;57.41;99697.16;343952;28;1631;-77
2022/06/13 00:10:19;;;;;;;5.97;1.90;;;;;;;20.92;56.76;99700.66;345195;28;1637;-78
2022/06/13 00:10:31;;;;;;;5.90;1.85;;;;;;;20.94;56.76;99698.72;345687;28;1242;-78
2022/06/13 00:10:43;;;;;;;4.82;1.70;;;;;;;20.98;56.59;99697.53;345165;28;1019;-78
2022/06/13 00:10:55;;;;;;;3.08;1.70;;;;;;;21.02;56.84;99699.00;343333;28;1218;-78
2022/06/13 00:11:11;;;;;;;5.50;1.70;;;;;;;21.01;56.73;99694.69;343548;28;1638;-78
2022/06/13 00:11:24;;;;;;;6.85;1.73;;;;;;;20.92;57.30;99695.34;343267;28;1789;-78
2022/06/13 00:11:36;;;;;;;5.30;1.70;;;;;;;20.96;57.26;99696.81;342714;28;1646;-78
2022/06/13 00:11:48;;;;;;;4.55;1.60;;;;;;;20.98;57.15;99697.53;343982;28;1583;-77
2022/06/13 00:12:00;;;;;;;4.68;1.60;;;;;;;21.00;57.23;99687.69;341725;28;1344;-78
2022/06/13 00:12:12;;;;;;;5.90;1.73;;;;;;;21.02;57.43;99698.16;341855;28;1672;-77
2022/06/13 00:12:25;;;;;;;6.72;1.98;;;;;;;21.04;57.60;99686.50;343059;28;1423;-78
2022/06/13 00:12:40;;;;;;;6.25;1.90;;;;;;;21.06;57.38;99695.16;340739;29;874;-78
2022/06/13 00:12:52;;;;;;;3.67;1.80;;;;;;;21.08;58.06;99690.59;342571;28;1233;-78
2022/06/13 00:13:05;;;;;;;3.67;1.80;;;;;;;21.08;57.99;99685.31;342750;28;1754;-78
2022/06/13 00:13:17;;;;;;;4.45;1.90;;;;;;;21.09;57.49;99692.31;342497;28;1546;-78
2022/06/13 00:13:29;;;;;;;5.70;1.85;;;;;;;21.11;57.88;99689.53;341509;28;1693;-77
2022/06/13 00:13:43;;;;;;;5.85;1.80;;;;;;;21.14;57.87;99684.00;343689;28;761;-77
2022/06/13 00:13:56;;;;;;;5.85;1.83;;;;;;;21.15;58.08;99685.72;344021;28;1154;-78
2022/06/13 00:14:08;;;;;;;4.55;1.67;;;;;;;21.18;58.14;99690.75;342554;28;1664;-78
2022/06/13 00:14:20;;;;;;;4.32;1.58;;;;;;;21.20;57.66;99685.34;342719;28;1834;-78
2022/06/13 00:14:32;;;;;;;4.13;1.60;;;;;;;21.21;57.73;99685.25;340556;29;960;-78
2022/06/13 00:14:44;;;;;;;5.10;1.70;;;;;;;21.22;57.24;99681.63;341425;28;1707;-77
2022/06/13 00:14:56;;;;;;;5.35;1.63;;;;;;;21.25;57.46;99685.81;341648;29;1635;-77
2022/06/13 00:15:11;;;;;;;4.75;1.70;;;;;;;21.27;57.24;99683.91;340512;29;1043;-77
2022/06/13 00:15:23;;;;;;;5.47;1.80;;;;;;;21.29;56.72;99682.00;341297;29;1735;-78
2022/06/13 00:15:35;;;;;;;6.10;1.80;;;;;;;21.28;56.72;99690.88;342684;28;754;-78
2022/06/13 00:15:47;;;;;;;6.90;1.83;;;;;;;21.27;56.95;99689.19;341822;28;1747;-77
2022/06/13 00:15:59;;;;;;;5.97;1.77;;;;;;;21.26;56.85;99692.81;342386;28;1695;-77
2022/06/13 00:16:13;;;;;;;4.70;1.70;;;;;;;21.26;56.79;99687.53;342632;28;1832;-78
2022/06/13 00:16:25;;;;;;;4.22;1.77;;;;;;;21.27;57.15;99694.47;342559;28;1113;-77
2022/06/13 00:16:38;;;;;;;3.90;1.88;;;;;;;21.27;57.71;99689.19;343848;28;772;-78
2022/06/13 00:16:50;;;;;;;4.07;1.80;;;;;;;21.29;57.67;99687.31;343954;28;1154;-78
2022/06/13 00:17:02;;;;;;;5.47;1.95;;;;;;;21.31;57.11;99688.03;344528;28;1137;-78
2022/06/13 00:17:14;;;;;;;4.93;1.70;;;;;;;21.32;56.39;99687.06;343488;28;1585;-78
2022/06/13 00:17:26;;;;;;;6.95;1.90;;;;;;;21.33;56.26;99688.75;343589;28;2153;-78
2022/06/13 00:17:38;;;;;;;6.47;2.03;;;;;;;21.33;56.33;99691.41;344668;28;717;-77
2022/06/13 00:17:50;;;;;;;6.78;2.10;;;;;;;21.32;56.33;99689.69;344438;28;1351;-77
2022/06/13 00:18:02;;;;;;;4.35;1.80;;;;;;;21.31;56.32;99685.38;343698;28;3131;-78
2022/06/13 00:18:14;;;;;;;4.22;1.70;;;;;;;21.31;56.29;99685.38;343036;28;2067;-78
2022/06/13 00:18:26;;;;;;;4.63;1.70;;;;;;;21.33;56.32;99688.75;344753;28;1789;-78
2022/06/13 00:18:38;;;;;;;4.72;1.60;;;;;;;21.32;56.32;99689.69;343004;28;952;-78
2022/06/13 00:18:51;;;;;;;5.00;1.70;;;;;;;21.30;56.22;99688.97;341539;29;889;-78
2022/06/13 00:19:03;;;;;;;4.63;1.70;;;;;;;21.30;56.57;99686.31;341195;28;2056;-78
2022/06/13 00:19:15;;;;;;;3.90;1.77;;;;;;;21.30;56.64;99678.41;341660;28;1604;-78
2022/06/13 00:19:27;;;;;;;5.13;1.80;;;;;;;21.32;56.67;99681.75;342934;28;2904;-78
2022/06/13 00:19:39;;;;;;;5.60;1.77;;;;;;;21.33;57.15;99684.28;342922;28;1075;-78
2022/06/13 00:19:51;;;;;;;8.10;2.03;;;;;;;21.36;57.18;99683.22;342969;28;1108;-78
2022/06/13 00:20:05;;;;;;;6.55;1.95;;;;;;;21.35;56.98;99686.81;343034;28;1186;-78
2022/06/13 00:20:17;;;;;;;5.93;1.88;;;;;;;21.34;56.92;99679.84;341800;29;1802;-78
2022/06/13 00:20:29;;;;;;;5.25;1.77;;;;;;;21.36;56.66;99683.22;341745;28;1371;-78
2022/06/13 00:20:41;;;;;;;5.45;1.80;;;;;;;21.37;56.21;99679.63;341772;28;1203;-78
2022/06/13 00:20:54;;;;;;;3.45;1.70;;;;;;;21.37;56.21;99679.63;343432;28;1148;-78
2022/06/13 00:21:06;;;;;;;4.57;1.70;;;;;;;21.36;56.76;99675.28;343474;28;1698;-78
2022/06/13 00:21:22;;;;;;;5.57;1.90;;;;;;;21.38;56.65;99676.00;343243;28;1850;-78
2022/06/13 00:21:36;;;;;;;5.20;2.00;;;;;;;21.39;56.42;99677.69;344181;28;1606;-78
2022/06/13 00:21:48;;;;;;;5.68;2.00;;;;;;;21.40;56.18;99682.00;344535;28;790;-78
2022/06/13 00:21:59;;;;;;;4.82;1.80;;;;;;;21.40;56.58;99682.00;344292;28;1417;-78
2022/06/13 00:22:11;;;;;;;3.83;1.63;;;;;;;21.41;56.39;99673.13;343801;28;1796;-78
2022/06/13 00:22:24;;;;;;;3.55;1.60;;;;;;;21.42;56.39;99672.16;345086;28;1804;-78
2022/06/13 00:22:36;;;;;;;4.43;1.75;;;;;;;21.41;56.63;99681.06;343528;28;1752;-77
2022/06/13 00:22:48;;;;;;;5.63;1.90;;;;;;;21.40;54.63;99674.06;342834;28;1630;-78
2022/06/13 00:23:00;;;;;;;7.47;1.90;;;;;;;21.39;53.75;99668.91;342688;28;1013;-78
2022/06/13 00:23:12;;;;;;;7.22;1.73;;;;;;;21.34;54.97;99663.97;341925;28;1792;-78
2022/06/13 00:23:24;;;;;;;5.57;1.67;;;;;;;21.33;54.67;99663.16;342694;28;1691;-79
2022/06/13 00:23:36;;;;;;;5.13;1.70;;;;;;;21.29;54.38;99666.97;340004;29;1098;-78
2022/06/13 00:23:50;;;;;;;6.80;1.77;;;;;;;21.34;54.70;99669.25;338840;29;1686;-78
2022/06/13 00:24:05;;;;;;;5.78;1.70;;;;;;;21.34;54.81;99659.53;338490;29;1979;-77
2022/06/13 00:24:17;;;;;;;4.93;1.73;;;;;;;21.34;54.48;99663.97;338893;29;1012;-78
2022/06/13 00:24:29;;;;;;;6.53;1.85;;;;;;;21.37;54.24;99662.88;339001;29;1096;-78
2022/06/13 00:24:41;;;;;;;6.20;1.90;;;;;;;21.39;54.38;99656.53;340014;29;1256;-78
2022/06/13 00:24:53;;;;;;;6.10;1.70;;;;;;;21.42;54.10;99656.28;339857;29;838;-78
2022/06/13 00:25:06;;;;;;;4.35;1.58;;;;;;;21.45;53.79;99657.88;338332;29;1951;-77
2022/06/13 00:25:18;;;;;;;3.70;1.48;;;;;;;21.45;53.17;99650.81;337903;29;1569;-78
2022/06/13 00:25:30;;;;;;;3.95;1.40;;;;;;;21.47;53.27;99654.19;341007;29;1160;-77
2022/06/13 00:25:42;;;;;;;4.32;1.40;;;;;;;21.47;53.10;99651.53;340028;29;1004;-78
2022/06/13 00:25:54;;;;;;;4.22;1.30;;;;;;;21.49;54.05;99662.84;341495;28;1800;-78
2022/06/13 00:26:06;;;;;;;6.18;1.52;;;;;;;21.51;54.46;99655.63;342267;28;1809;-77
2022/06/13 00:26:21;;;;;;;6.25;1.60;;;;;;;21.53;54.30;99658.97;342964;28;1615;-78
2022/06/13 00:26:36;;;;;;;5.32;1.70;;;;;;;21.54;54.45;99659.81;343481;28;1156;-79
2022/06/13 00:26:48;;;;;;;3.72;1.60;;;;;;;21.55;54.38;99653.59;342375;28;1169;-78
2022/06/13 00:27:00;;;;;;;3.72;1.60;;;;;;;21.56;55.20;99655.25;345330;28;1570;-77
2022/06/13 00:27:13;;;;;;;4.22;1.60;;;;;;;21.57;54.92;99658.72;344189;28;1502;-78
2022/06/13 00:27:25;;;;;;;4.47;1.60;;;;;;;21.57;54.94;99664.00;343064;28;1629;-78
2022/06/13 00:27:37;;;;;;;4.47;1.42;;;;;;;21.57;54.68;99658.72;342019;29;730;-78
2022/06/13 00:27:49;;;;;;;5.07;1.50;;;;;;;21.58;54.47;99665.72;341802;29;1127;-78
2022/06/13 00:28:01;;;;;;;5.60;1.55;;;;;;;21.59;54.37;99667.38;342111;29;1107;-78
2022/06/13 00:28:13;;;;;;;4.25;1.50;;;;;;;21.59;54.52;99668.25;341085;29;2138;-77
2022/06/13 00:28:25;;;;;;;3.97;1.50;;;;;;;21.58;54.48;99668.38;341449;28;1770;-78
2022/06/13 00:28:37;;;;;;;4.00;1.60;;;;;;;21.59;54.76;99667.38;341185;29;1064;-78
2022/06/13 00:28:51;;;;;;;3.42;1.50;;;;;;;21.59;54.27;99665.59;340339;29;1199;-78
2022/06/13 00:29:03;;;;;;;3.15;1.50;;;;;;;21.59;54.09;99660.31;341331;29;1047;-78
2022/06/13 00:29:15;;;;;;;4.07;1.58;;;;;;;21.58;54.29;99660.44;339049;29;1694;-78
2022/06/13 00:29:28;;;;;;;5.95;1.70;;;;;;;21.58;54.44;99668.38;340647;28;1221;-78
2022/06/13 00:29:44;;;;;;;5.90;1.77;;;;;;;21.55;53.92;99669.44;342101;28;1103;-78
2022/06/13 00:29:59;;;;;;;4.70;1.70;;;;;;;21.51;53.05;99667.97;342756;28;1381;-78
2022/06/13 00:30:12;;;;;;;4.90;1.77;;;;;;;21.52;53.38;99667.88;342299;28;2048;-78
2022/06/13 00:30:24;;;;;;;4.22;1.70;;;;;;;21.51;53.82;99668.84;343150;28;956;-78
2022/06/13 00:30:37;;;;;;;4.07;1.55;;;;;;;21.52;53.97;99670.50;341832;29;1039;-79
2022/06/13 00:30:49;;;;;;;4.57;1.55;;;;;;;21.53;54.51;99668.69;340610;29;1108;-78
2022/06/13 00:31:01;;;;;;;5.18;1.67;;;;;;;21.52;55.10;99670.50;341599;29;1064;-77
2022/06/13 00:31:13;;;;;;;4.75;1.85;;;;;;;21.51;55.46;99671.50;342002;28;1595;-78
2022/06/13 00:31:26;;;;;;;6.15;1.90;;;;;;;21.53;55.44;99676.63;342697;28;1746;-77
2022/06/13 00:31:38;;;;;;;6.18;1.70;;;;;;;21.50;56.32;99668.94;342631;28;1063;-78
2022/06/13 00:31:50;;;;;;;5.53;1.70;;;;;;;21.50;56.31;99669.78;343948;28;1196;-78
2022/06/13 00:32:02;;;;;;;5.68;1.70;;;;;;;21.49;56.79;99673.41;343995;28;1384;-78
2022/06/13 00:32:14;;;;;;;4.75;1.80;;;;;;;21.49;56.39;99673.41;343449;28;1621;-78
2022/06/13 00:32:26;;;;;;;5.40;1.80;;;;;;;21.48;56.51;99676.16;344091;28;1901;-77
2022/06/13 00:32:38;;;;;;;4.88;1.70;;;;;;;21.48;55.36;99666.41;344287;28;1066;-78
2022/06/13 00:32:50;;;;;;;4.37;1.47;;;;;;;21.45;53.35;99671.09;344551;28;1107;-78
2022/06/13 00:33:02;;;;;;;3.97;1.40;;;;;;;21.39;53.16;99671.53;343623;28;1558;-78
2022/06/13 00:33:14;;;;;;;3.83;1.30;;;;;;;21.42;52.23;99676.63;343692;28;1658;-78
2022/06/13 00:33:27;;;;;;;3.45;1.50;;;;;;;21.41;52.48;99670.50;343692;28;1670;-78
2022/06/13 00:33:39;;;;;;;4.57;1.50;;;;;;;21.42;51.87;99677.44;342397;28;1043;-78
2022/06/13 00:33:52;;;;;;;4.45;1.58;;;;;;;21.41;51.40;99678.41;342977;28;1116;-78
2022/06/13 00:34:04;;;;;;;3.67;1.60;;;;;;;21.42;51.24;99672.16;342594;28;1047;-78
2022/06/13 00:34:16;;;;;;;2.83;1.40;;;;;;;21.42;51.19;99677.44;340974;28;2203;-78
2022/06/13 00:34:28;;;;;;;3.20;1.50;;;;;;;21.35;50.31;99677.09;341381;28;1736;-78
2022/06/13 00:34:40;;;;;;;3.42;1.50;;;;;;;21.32;50.15;99676.47;341816;28;1174;-78
2022/06/13 00:34:52;;;;;;;4.95;1.60;;;;;;;21.35;50.40;99670.97;341056;28;1923;-78
2022/06/13 00:35:04;;;;;;;5.45;1.50;;;;;;;21.36;50.30;99672.63;342983;28;1158;-77
2022/06/13 00:35:17;;;;;;;5.40;1.50;;;;;;;21.39;50.46;99675.06;341980;28;1520;-77
2022/06/13 00:35:29;;;;;;;3.97;1.40;;;;;;;21.39;49.60;99676.84;341415;28;1381;-78
2022/06/13 00:35:41;;;;;;;3.70;1.45;;;;;;;21.38;49.28;99673.34;342108;28;1051;-77
2022/06/13 00:35:53;;;;;;;5.10;1.70;;;;;;;21.37;49.25;99669.03;341621;28;2169;-78
2022/06/13 00:36:05;;;;;;;5.47;1.85;;;;;;;21.39;49.60;99676.84;339972;29;1073;-77
2022/06/13 00:36:18;;;;;;;5.38;1.70;;;;;;;21.39;49.84;99674.19;341354;29;1635;-78
2022/06/13 00:36:30;;;;;;;4.53;1.55;;;;;;;21.38;49.77;99676.00;341747;28;1024;-78
2022/06/13 00:36:42;;;;;;;5.53;1.75;;;;;;;21.37;49.93;99671.69;340927;29;1003;-78
2022/06/13 00:36:54;;;;;;;5.05;1.73;;;;;;;21.36;51.23;99672.63;341773;28;1219;-78
2022/06/13 00:37:06;;;;;;;3.67;1.58;;;;;;;21.33;52.50;99672.88;342332;28;1648;-78
2022/06/13 00:37:18;;;;;;;3.13;1.40;;;;;;;21.30;53.01;99673.09;342518;28;1834;-78
2022/06/13 00:37:30;;;;;;;3.92;1.55;;;;;;;21.29;53.27;99676.72;342950;28;1257;-78
2022/06/13 00:37:42;;;;;;;5.28;1.70;;;;;;;21.25;53.32;99672.59;344297;28;741;-78
2022/06/13 00:37:54;;;;;;;4.95;1.70;;;;;;;21.24;54.22;99681.50;343156;28;1937;-78
2022/06/13 00:38:07;;;;;;;4.18;1.70;;;;;;;21.20;54.14;99672.97;343951;28;1714;-77
2022/06/13 00:38:18;;;;;;;4.20;1.73;;;;;;;21.19;54.33;99670.44;344274;28;1596;-77
2022/06/13 00:38:31;;;;;;;4.28;1.63;;;;;;;21.17;54.78;99667.06;344372;28;1273;-77
2022/06/13 00:38:43;;;;;;;5.35;1.80;;;;;;;21.08;54.88;99669.44;344234;28;737;-78
2022/06/13 00:38:55;;;;;;;5.78;1.90;;;;;;;21.06;55.12;99668.72;345186;28;1248;-78
2022/06/13 00:39:07;;;;;;;5.07;1.85;;;;;;;21.04;55.39;99673.28;344597;28;1930;-77
2022/06/13 00:39:20;;;;;;;3.85;1.80;;;;;;;21.01;55.49;99668.25;341585;28;1188;-78
2022/06/13 00:39:32;;;;;;;5.47;1.90;;;;;;;20.98;55.74;99671.13;342412;28;1180;-78
2022/06/13 00:39:44;;;;;;;6.32;1.95;;;;;;;20.90;56.07;99665.56;342196;28;1889;-78
2022/06/13 00:39:56;;;;;;;6.65;2.00;;;;;;;20.89;56.21;99669.19;342867;28;768;-78
2022/06/13 00:40:09;;;;;;;6.28;2.00;;;;;;;20.87;56.19;99668.47;342538;28;1726;-77
2022/06/13 00:40:22;;;;;;;6.00;1.90;;;;;;;20.84;56.26;99666.03;342382;28;1092;-78
2022/06/13 00:40:34;;;;;;;6.13;1.90;;;;;;;20.83;56.46;99674.94;342973;28;1079;-78
2022/06/13 00:40:48;;;;;;;6.57;2.10;;;;;;;20.84;56.83;99671.31;342996;28;1197;-78
2022/06/13 00:41:00;;;;;;;6.30;2.00;;;;;;;20.83;56.95;99667.00;344634;28;767;-78
2022/06/13 00:41:14;;;;;;;5.80;1.80;;;;;;;20.82;57.05;99665.31;342923;28;1570;-78
2022/06/13 00:41:33;;;;;;;4.85;2.00;;;;;;;20.81;57.09;99676.84;344090;28;1789;-78
2022/06/13 00:41:46;;;;;;;4.95;1.95;;;;;;;20.78;57.16;99666.50;342838;28;1203;-78
2022/06/13 00:41:58;;;;;;;5.57;1.83;;;;;;;20.77;57.36;99672.75;341636;28;1247;-78
2022/06/13 00:42:17;;;;;;;4.50;1.80;;;;;;;20.73;57.37;99675.59;339298;29;2114;-77
2022/06/13 00:42:29;;;;;;;4.97;2.00;;;;;;;20.73;57.62;99669.50;340676;29;1212;-78
2022/06/13 00:42:42;;;;;;;5.22;2.00;;;;;;;20.72;57.62;99667.78;340475;29;2082;-78
2022/06/13 00:42:53;;;;;;;4.30;1.80;;;;;;;20.69;58.01;99673.31;340274;29;735;-77
2022/06/13 00:43:06;;;;;;;4.30;1.85;;;;;;;20.68;57.98;99671.63;340251;29;1180;-77
2022/06/13 00:43:18;;;;;;;5.13;1.85;;;;;;;20.65;58.18;99672.69;340211;29;1708;-77
2022/06/13 00:43:30;;;;;;;4.93;1.80;;;;;;;20.62;58.22;99677.34;340671;29;746;-78
2022/06/13 00:43:44;;;;;;;5.28;1.70;;;;;;;20.61;58.40;99668.59;340229;29;1030;-78
2022/06/13 00:43:58;;;;;;;5.15;1.67;;;;;;;20.58;58.69;99681.16;340481;29;816;-77
2022/06/13 00:44:21;;;;;;;6.00;1.92;;;;;;;20.55;58.89;99674.31;340502;29;1840;-78
2022/06/13 00:44:38;;;;;;;6.00;2.08;;;;;;;20.53;58.69;99668.28;341040;28;1949;-78
2022/06/13 00:45:24;;;;;;;11.32;2.33;;;;;;;20.47;58.93;99679.31;341342;29;1122;-77
2022/06/13 00:45:36;;;;;;;4.20;1.90;;;;;;;20.44;59.19;99675.06;338858;29;1045;-78
2022/06/13 00:45:48;;;;;;;4.78;1.80;;;;;;;20.43;59.31;99672.56;340499;29;1916;-78
2022/06/13 00:46:00;;;;;;;3.97;1.75;;;;;;;20.39;59.51;99679.03;341037;29;1594;-78
2022/06/13 00:46:30;;;;;;;5.07;2.03;;;;;;;20.38;59.36;99680.81;340489;29;2164;-78
2022/06/13 00:46:42;;;;;;;3.47;1.80;;;;;;;20.37;59.65;99673.00;341721;29;876;-77
2022/06/13 00:46:55;;;;;;;3.25;1.70;;;;;;;20.36;59.92;99674.78;343296;28;1311;-78
2022/06/13 00:47:10;;;;;;;4.88;1.92;;;;;;;20.33;59.91;99672.38;343466;28;1864;-77
2022/06/13 00:47:22;;;;;;;6.18;2.00;;;;;;;20.31;59.97;99675.13;343935;28;1824;-78
2022/06/13 00:47:37;;;;;;;5.22;2.00;;;;;;;20.26;60.05;99673.78;343939;28;1243;-78
2022/06/13 00:47:52;;;;;;;6.13;2.10;;;;;;;20.30;59.71;99670.81;344215;28;1088;-78
2022/06/13 00:48:04;;;;;;;6.50;2.20;;;;;;;20.34;59.86;99669.66;343793;28;1558;-77
2022/06/13 00:48:28;;;;;;;4.97;2.10;;;;;;;20.37;59.70;99679.13;343401;28;1673;-78
2022/06/13 00:48:40;;;;;;;5.30;2.22;;;;;;;20.38;59.77;99682.59;343030;28;1067;-77
2022/06/13 00:49:08;;;;;;;4.78;2.15;;;;;;;20.35;59.75;99671.31;344727;28;2121;-77
2022/06/13 00:49:28;;;;;;;5.22;2.20;;;;;;;20.34;59.80;99679.34;342104;28;1572;-77
2022/06/13 00:49:44;;;;;;;4.88;1.98;;;;;;;20.35;59.87;99676.59;342782;28;851;-78
2022/06/13 00:49:58;;;;;;;4.93;1.90;;;;;;;20.34;60.01;99680.19;342776;28;2190;-77
2022/06/13 00:50:17;;;;;;;6.50;2.30;;;;;;;20.33;60.08;99678.50;342158;28;1812;-78
2022/06/13 00:50:34;;;;;;;6.40;2.13;;;;;;;20.35;60.01;99676.59;342065;28;1359;-78
2022/06/13 00:50:52;;;;;;;6.10;2.00;;;;;;;20.36;59.76;99672.16;342568;28;1168;-77
2022/06/13 00:51:04;;;;;;;4.55;2.20;;;;;;;20.29;60.25;99679.69;341808;29;1105;-78
2022/06/13 00:51:17;;;;;;;5.05;2.15;;;;;;;20.20;60.58;99677.69;340966;29;1944;-78
2022/06/13 00:51:31;;;;;;;5.20;2.08;;;;;;;20.20;60.57;99682.97;342526;28;1749;-78
2022/06/13 00:51:48;;;;;;;5.82;2.33;;;;;;;20.19;60.96;99678.66;343417;28;1741;-77
2022/06/13 00:52:04;;;;;;;6.00;2.30;;;;;;;20.22;61.07;99675.81;340949;29;1939;-77
2022/06/13 00:52:34;;;;;;;7.90;2.17;;;;;;;20.25;61.19;99675.56;342856;28;1807;-78
2022/06/13 00:52:56;;;;;;;8.18;2.30;;;;;;;20.33;60.52;99681.16;342388;28;1234;-78
2022/06/13 00:53:15;;;;;;;8.68;2.10;;;;;;;20.40;60.69;99672.78;342599;28;1701;-78
2022/06/13 00:53:32;;;;;;;8.68;2.28;;;;;;;20.44;60.13;99679.50;343606;28;1833;-77
2022/06/13 00:53:45;;;;;;;5.25;1.98;;;;;;;20.44;60.36;99674.22;342156;28;1479;-78
2022/06/13 00:53:58;;;;;;;4.25;2.03;;;;;;;20.46;60.48;99672.31;341856;28;1099;-78
2022/06/13 00:54:14;;;;;;;4.85;2.00;;;;;;;20.45;60.45;99676.78;342900;28;974;-78
2022/06/13 00:54:27;;;;;;;3.75;1.70;;;;;;;20.48;60.86;99675.69;343554;28;1000;-77
2022/06/13 00:54:40;;;;;;;3.67;1.83;;;;;;;20.48;60.97;99676.56;343614;28;1011;-77
2022/06/13 00:54:54;;;;;;;5.15;2.00;;;;;;;20.50;60.87;99679.06;343640;28;1440;-78
2022/06/13 00:55:10;;;;;;;5.80;1.90;;;;;;;20.53;60.58;99678.84;342648;28;1265;-78
2022/06/13 00:55:31;;;;;;;5.50;1.88;;;;;;;20.56;60.71;99678.63;342515;28;1096;-78
2022/06/13 00:55:59;;;;;;;4.43;1.80;;;;;;;20.58;59.78;99676.69;342684;28;1080;-78
2022/06/13 00:56:15;;;;;;;5.22;2.00;;;;;;;20.59;59.50;99675.78;343202;28;1685;-78
2022/06/13 00:56:31;;;;;;;4.82;1.90;;;;;;;20.60;59.58;99680.09;342508;28;1475;-77
2022/06/13 00:56:45;;;;;;;4.30;1.90;;;;;;;20.62;59.46;99680.81;342407;28;1035;-77
2022/06/13 00:56:57;;;;;;;4.10;1.90;;;;;;;20.63;59.26;99677.25;342394;28;1233;-77
2022/06/13 00:57:17;;;;;;;5.78;1.95;;;;;;;20.60;59.35;99674.81;342071;28;1810;-78
2022/06/13 00:57:29;;;;;;;7.82;2.10;;;;;;;20.54;59.78;99680.53;344443;28;1102;-77
2022/06/13 00:57:42;;;;;;;6.93;2.10;;;;;;;20.51;59.33;99678.97;343917;28;1389;-78
2022/06/13 00:57:55;;;;;;;7.65;2.20;;;;;;;20.54;58.93;99680.53;344145;28;838;-77
2022/06/13 00:58:07;;;;;;;7.47;2.03;;;;;;;20.56;59.05;99678.63;341126;28;1612;-77
2022/06/13 00:58:20;;;;;;;5.30;1.90;;;;;;;20.58;59.11;99684.63;342742;28;1611;-78
2022/06/13 00:58:40;;;;;;;4.40;1.95;;;;;;;20.55;59.38;99687.50;344986;28;1074;-77
2022/06/13 00:58:58;;;;;;;6.13;2.30;;;;;;;20.55;59.48;99687.50;344386;28;1673;-78
2022/06/13 00:59:15;;;;;;;5.57;2.10;;;;;;;20.58;59.37;99686.44;343267;28;1808;-77
2022/06/13 00:59:33;;;;;;;7.88;1.80;;;;;;;20.59;59.29;99689.00;344404;28;989;-78
2022/06/13 00:59:48;;;;;;;8.52;1.83;;;;;;;20.55;58.56;99684.88;341571;28;1369;-77
2022/06/13 01:00:07;;;;;;;7.07;2.10;;;;;;;20.49;58.39;99687.97;341309;29;1164;-77
2022/06/13 01:00:19;;;;;;;5.35;1.92;;;;;;;20.49;58.59;99687.97;342657;28;1651;-78
2022/06/13 01:00:35;;;;;;;4.57;1.80;;;;;;;20.52;58.45;99693.00;342455;28;1950;-78
2022/06/13 01:00:52;;;;;;;4.82;1.85;;;;;;;20.50;58.21;99693.13;343948;28;1023;-78
2022/06/13 01:01:05;;;;;;;6.32;2.20;;;;;;;20.49;58.25;99693.25;343112;28;1498;-78
2022/06/13 01:01:18;;;;;;;5.35;2.10;;;;;;;20.52;58.38;99690.34;343625;28;1330;-77
2022/06/13 01:01:32;;;;;;;5.20;1.95;;;;;;;20.52;58.77;99685.94;342338;28;1073;-78
2022/06/13 01:01:45;;;;;;;6.40;2.05;;;;;;;20.50;58.74;99689.63;343354;28;912;-78
2022/06/13 01:01:57;;;;;;;5.63;2.03;;;;;;;20.49;58.64;99691.44;343659;28;1174;-77
2022/06/13 01:02:10;;;;;;;6.72;2.00;;;;;;;20.50;58.54;99689.63;343092;28;1535;-77
2022/06/13 01:02:23;;;;;;;6.28;1.90;;;;;;;20.51;58.56;99693.97;343661;28;1607;-78
2022/06/13 01:02:39;;;;;;;5.55;1.77;;;;;;;20.52;58.26;99690.34;344121;28;1104;-77
2022/06/13 01:02:53;;;;;;;4.82;1.90;;;;;;;20.52;58.40;99688.59;342817;28;1226;-78
2022/06/13 01:03:06;;;;;;;4.18;1.77;;;;;;;20.55;57.88;99687.50;343461;28;936;-78
2022/06/13 01:03:18;;;;;;;5.25;1.83;;;;;;;20.54;57.53;99685.81;341857;28;1423;-77
2022/06/13 01:03:32;;;;;;;5.93;1.92;;;;;;;20.51;57.71;99689.53;343981;28;1115;-77
2022/06/13 01:03:44;;;;;;;5.32;2.10;;;;;;;20.54;57.73;99683.16;345464;28;1058;-78
2022/06/13 01:03:59;;;;;;;5.57;2.15;;;;;;;20.49;57.86;99685.31;344541;28;1061;-77
2022/06/13 01:04:11;;;;;;;6.97;2.05;;;;;;;20.50;57.96;99684.34;343217;28;1665;-78
2022/06/13 01:04:23;;;;;;;7.18;2.08;;;;;;;20.50;57.96;99689.63;341650;28;1463;-77
2022/06/13 01:04:35;;;;;;;6.65;2.10;;;;;;;20.50;58.10;99686.97;341999;28;1660;-77
2022/06/13 01:04:52;;;;;;;7.55;2.00;;;;;;;20.51;58.23;99686.03;342589;28;996;-78
2022/06/13 01:05:05;;;;;;;7.00;1.80;;;;;;;20.52;58.09;99687.72;343831;28;1047;-77
2022/06/13 01:05:22;;;;;;;5.70;1.85;;;;;;;20.50;58.16;99679.06;341425;28;1629;-78
2022/06/13 01:05:48;;;;;;;6.50;2.10;;;;;;;20.48;58.26;99684.47;342726;28;1484;-78